EDDGEDDN

Guest
Details From EDDG - Muenster Osnabrueck
To EDDN - Nurnberg
Flight Number -
Tags generated
Created
Modified
Stats Distance 204 nm / 379 km
Max Altitude 21,000 ft / 6,401 m
Waypoints 3
Social Downloads 3
Likes 0
Share VATSIM

Download

Looking for another format? Having issues loading an existing format? Contact us
Advertisement - Login to hide

Notes

Basic altitude profile: - Ascent Rate: 1500ft/min - Ascent Speed: 250kts - Cruise Altitude: 500ft - Cruise Speed: 300kts - Descent Rate: 1500ft/min - Descent Speed: 250kts Options: - Use NATs: yes - Use PACOTS: yes - Use low airways: yes - Use high airways: yes

Route

EDDG FULNO EDDN

ID Type Via Altitude Latitude Longitude Leg Dist Tot Dist Heading (true) Name
O EDDG APT - 0 ft / 0 m 52.13458˚ 7.68467˚ - 0 nm - Muenster Osnabrueck
FULNO FIX - 21,000 ft / 6,401 m 50.84722˚ 9.62167˚ 105 nm 105 nm 136° / 138° -
O EDDN APT - 0 ft / 0 m 49.49874˚ 11.07758˚ 98 nm 204 nm 145° / 146° Nurnberg

Altitude Profile

Advertisement - Login to hide

Weather


0- 5 10 15 20 25 30 35+ Temperature / ° C

Clouds and Precipitation
Forecast for 2018-05-26 06:00 UTC. Updated 3 hours ago

Ground ~20,000 ft ~40,000 ft Winds

EDDG

Details ICAO EDDG (FMO)
Name Muenster Osnabrueck
Region Germany - Civil
Timezone Europe/Berlin (UTC+2.0)
Stats Elevation 159 ft / 48 m (AMSL)
Location 52.134580° 7.684669°
Runways 1
Magnetic Variation 2.130° E

METAR

EDDG 260820Z 05005KT 010V110 CAVOK 24/14 Q1021 NOSIG

Decode

TAF

TAF EDDG 260500Z 2606/2706 VRB02KT CAVOK BECMG 2607/2610 07007KT

Decode

Departure Runways

ID Width Length Bearing (true) Bearing (mag) Surface Threshold Offset Overrun Length
07 148 ft / 45 m 7,303 ft / 2,226 m 70.93° 68.80° Asphalt 151 ft / 46 m 0 ft / 0 m
25 148 ft / 45 m 7,303 ft / 2,226 m 250.96° 248.83° Asphalt 292 ft / 89 m 0 ft / 0 m

EDDN

Details ICAO EDDN (NUE)
Name Nurnberg
Region Germany - Civil
Timezone Europe/Berlin (UTC+2.0)
Stats Elevation 1,045 ft / 319 m (AMSL)
Location 49.498744° 11.077580°
Runways 1
Magnetic Variation 3.075° E

METAR

EDDN 260820Z 14004KT 040V200 9999 FEW028 SCT300 22/14 Q1021 NOSIG

Decode

TAF

TAF EDDN 260500Z 2606/2706 09006KT CAVOK BECMG 2618/2620 VRB02KT

Decode

Destination Runways

ID Width Length Bearing (true) Bearing (mag) Surface Threshold Offset Overrun Length
10 148 ft / 45 m 8,819 ft / 2,688 m 98.60° 95.53° Asphalt 0 ft / 0 m 0 ft / 0 m
28 148 ft / 45 m 8,819 ft / 2,688 m 278.63° 275.56° Asphalt 0 ft / 0 m 0 ft / 0 m

Approach Navaids

Runway Type Ident Frequency Range Bearing (true) Bearing (mag) Slope Elevation
10 Localiser INUE 111.30 MHz 18 nm / 33 km 98.64° 95.56° - 1,046 ft / 319 m (AMSL)
10 Glidescope INUE 111.30 MHz 10 nm / 19 km 98.61° 95.54° 3.00° 1,022 ft / 312 m (AMSL)
28 Localiser INUW 109.10 MHz 23 nm / 43 km 278.59° 275.51° - 1,122 ft / 342 m (AMSL)
28 Glidescope INUW 109.10 MHz 10 nm / 19 km 278.62° 275.54° 3.00° 1,046 ft / 319 m (AMSL)

Popular Alternatives